createdAt,value
2022-10-02T00:01:33.896Z,101439.44
2022-10-02T00:04:03.668Z,101439.44
2022-10-02T00:06:41.309Z,101444.56
2022-10-02T00:09:16.870Z,101444.31
2022-10-02T00:11:48.225Z,101457.75
2022-10-02T00:14:20.067Z,101461.78
2022-10-02T00:16:50.207Z,101474.63
2022-10-02T00:19:20.159Z,101466.19
2022-10-02T00:22:06.312Z,101474.00
2022-10-02T00:24:39.800Z,101471.88
2022-10-02T00:27:17.325Z,101471.53
2022-10-02T00:29:51.384Z,101474.69
2022-10-02T00:32:30.099Z,101487.06
2022-10-02T00:35:26.603Z,101476.13
2022-10-02T00:38:02.630Z,101472.81
2022-10-02T00:40:43.067Z,101466.75
2022-10-02T00:43:25.793Z,101460.81
2022-10-02T00:46:23.537Z,101456.44
2022-10-02T00:49:10.736Z,101467.34
2022-10-02T00:51:52.907Z,101469.84
2022-10-02T00:54:31.372Z,101479.19
2022-10-02T00:57:10.198Z,101482.53
2022-10-02T00:59:58.346Z,101482.78
2022-10-02T01:03:01.043Z,101489.53
2022-10-02T01:05:30.543Z,101507.59
2022-10-02T01:07:58.679Z,101502.31
2022-10-02T01:10:28.324Z,101493.09
2022-10-02T01:12:57.978Z,101501.31
2022-10-02T01:15:33.457Z,101501.06
2022-10-02T01:18:03.266Z,101495.59
2022-10-02T01:20:37.057Z,101508.22
2022-10-02T01:23:14.988Z,101515.31
2022-10-02T01:25:44.959Z,101511.16
2022-10-02T01:28:13.697Z,101506.31
2022-10-02T01:30:44.862Z,101509.88
2022-10-02T01:33:16.565Z,101506.06
2022-10-02T01:35:45.495Z,101500.00
2022-10-02T01:38:16.483Z,101506.91
2022-10-02T01:40:46.232Z,101488.81
2022-10-02T01:43:18.068Z,101493.47
2022-10-02T01:46:05.392Z,101479.00
2022-10-02T01:48:46.385Z,101486.16
2022-10-02T01:51:27.077Z,101484.72
2022-10-02T01:54:06.008Z,101491.47
2022-10-02T01:56:44.396Z,101480.56
2022-10-02T01:59:21.844Z,101487.66
2022-10-02T02:02:00.486Z,101490.03
2022-10-02T02:04:34.083Z,101489.81
2022-10-02T02:07:09.727Z,101495.72
2022-10-02T02:09:43.748Z,101504.38
2022-10-02T02:12:19.511Z,101513.03
2022-10-02T02:14:53.117Z,101501.91
2022-10-02T02:17:27.756Z,101500.00
2022-10-02T02:20:02.009Z,101503.56
2022-10-02T02:22:34.537Z,101508.81
2022-10-02T02:25:08.018Z,101520.78
2022-10-02T02:27:41.903Z,101523.50
2022-10-02T02:30:13.201Z,101525.66
2022-10-02T02:32:46.116Z,101534.44
2022-10-02T02:35:18.707Z,101530.03
2022-10-02T02:37:50.968Z,101514.84
2022-10-02T02:40:24.209Z,101519.72
2022-10-02T02:43:01.018Z,101517.81
2022-10-02T02:45:33.434Z,101503.78
2022-10-02T02:48:05.991Z,101501.91
2022-10-02T02:50:40.712Z,101498.75
2022-10-02T02:53:15.648Z,101497.09
2022-10-02T02:55:48.381Z,101502.56
2022-10-02T02:58:21.780Z,101506.59
2022-10-02T03:00:50.465Z,101520.25
2022-10-02T03:03:19.125Z,101519.63
2022-10-02T03:05:51.893Z,101519.06
2022-10-02T03:08:24.445Z,101514.16
2022-10-02T03:11:06.356Z,101519.88
2022-10-02T03:13:53.307Z,101518.19
2022-10-02T03:16:37.801Z,101524.50
2022-10-02T03:19:24.843Z,101538.38
2022-10-02T03:22:02.764Z,101531.25
2022-10-02T03:24:36.605Z,101535.88
2022-10-02T03:27:11.050Z,101528.06
2022-10-02T03:29:46.583Z,101522.00
2022-10-02T03:32:17.511Z,101517.38
2022-10-02T03:34:45.619Z,101520.56
2022-10-02T03:37:13.854Z,101515.91
2022-10-02T03:39:44.264Z,101520.34
2022-10-02T03:42:14.359Z,101519.72
2022-10-02T03:44:44.456Z,101518.06
2022-10-02T03:47:12.745Z,101520.78
2022-10-02T03:49:40.890Z,101511.75
2022-10-02T03:52:09.161Z,101511.75
2022-10-02T03:54:38.150Z,101519.56
2022-10-02T03:57:08.704Z,101525.03
2022-10-02T03:59:45.932Z,101519.56
2022-10-02T04:02:28.221Z,101507.81
2022-10-02T04:05:01.720Z,101508.84
2022-10-02T04:07:38.546Z,101507.19
2022-10-02T04:10:24.294Z,101508.03
2022-10-02T04:12:55.084Z,101518.38
2022-10-02T04:15:30.288Z,101527.97
2022-10-02T04:18:04.438Z,101545.69
2022-10-02T04:20:41.765Z,101549.00
2022-10-02T04:23:16.850Z,101554.44
2022-10-02T04:25:51.117Z,101549.00
2022-10-02T04:28:24.790Z,101557.19
2022-10-02T04:30:55.077Z,101547.78
2022-10-02T04:33:25.605Z,101549.44
2022-10-02T04:36:04.457Z,101558.47
2022-10-02T04:38:45.401Z,101572.38
2022-10-02T04:41:21.670Z,101580.31
2022-10-02T04:44:05.871Z,101584.31
2022-10-02T04:47:00.504Z,101581.84
2022-10-02T04:49:45.924Z,101566.75
2022-10-02T04:52:42.826Z,101566.13
2022-10-02T04:55:31.339Z,101573.41
2022-10-02T04:58:18.541Z,101577.03
2022-10-02T05:00:52.474Z,101582.50
2022-10-02T05:03:37.205Z,101578.69
2022-10-02T05:06:21.968Z,101587.34
2022-10-02T05:09:03.158Z,101592.34
2022-10-02T05:11:57.138Z,101591.78
2022-10-02T05:15:04.907Z,101596.59
2022-10-02T05:17:47.348Z,101591.16
2022-10-02T05:20:35.259Z,101587.81
2022-10-02T05:23:17.664Z,101580.69
2022-10-02T05:26:03.447Z,101579.59
2022-10-02T05:28:53.581Z,101575.84
2022-10-02T05:31:33.343Z,101564.75
2022-10-02T05:34:18.890Z,101554.88
2022-10-02T05:37:06.597Z,101550.84
2022-10-02T05:39:37.868Z,101552.13
2022-10-02T05:42:14.254Z,101565.78
2022-10-02T05:44:46.503Z,101575.06
2022-10-02T05:47:23.642Z,101576.13
2022-10-02T05:49:57.443Z,101594.16
2022-10-02T05:52:32.413Z,101602.97
2022-10-02T05:55:08.865Z,101613.06
2022-10-02T05:57:42.137Z,101617.66
2022-10-02T06:00:31.321Z,101629.66
2022-10-02T06:03:09.418Z,101638.69
2022-10-02T06:05:46.920Z,101644.97
2022-10-02T06:08:19.223Z,101653.78
2022-10-02T06:10:51.769Z,101650.50
2022-10-02T06:13:25.783Z,101641.41
2022-10-02T06:16:00.414Z,101643.31
2022-10-02T06:18:34.408Z,101627.38
2022-10-02T06:21:08.156Z,101632.00
2022-10-02T06:23:43.436Z,101621.91
2022-10-02T06:26:16.542Z,101616.44
2022-10-02T06:28:51.623Z,101623.56
2022-10-02T06:31:27.531Z,101634.50
2022-10-02T06:33:56.216Z,101631.56
2022-10-02T06:36:42.877Z,101642.06
2022-10-02T06:39:32.785Z,101656.34
2022-10-02T06:42:10.141Z,101654.22
2022-10-02T06:44:47.995Z,101652.56
2022-10-02T06:47:34.992Z,101652.56
2022-10-02T06:50:21.244Z,101664.31
2022-10-02T06:52:59.224Z,101662.41
2022-10-02T06:55:41.165Z,101665.97
2022-10-02T06:58:26.387Z,101672.28
2022-10-02T07:01:04.355Z,101687.63
2022-10-02T07:03:45.621Z,101692.50
2022-10-02T07:06:21.909Z,101698.34
2022-10-02T07:09:16.143Z,101697.53
2022-10-02T07:11:55.352Z,101700.44
2022-10-02T07:14:32.081Z,101694.34
2022-10-02T07:17:14.480Z,101706.72
2022-10-02T07:20:07.689Z,101709.22
2022-10-02T07:22:51.340Z,101705.66
2022-10-02T07:25:52.468Z,101713.41
2022-10-02T07:28:27.712Z,101714.66
2022-10-02T07:31:03.832Z,101728.56
2022-10-02T07:33:48.793Z,101734.84
2022-10-02T07:36:27.471Z,101744.50
2022-10-02T07:39:16.235Z,101739.88
2022-10-02T07:42:04.508Z,101744.94
2022-10-02T07:45:00.387Z,101748.25
2022-10-02T07:47:49.963Z,101756.63
2022-10-02T07:50:27.379Z,101759.78
2022-10-02T07:53:03.141Z,101758.50
2022-10-02T07:55:31.383Z,101753.66
2022-10-02T07:58:04.714Z,101753.81
2022-10-02T08:00:38.390Z,101758.69
2022-10-02T08:03:11.457Z,101752.53
2022-10-02T08:05:44.574Z,101752.34
2022-10-02T08:08:19.325Z,101755.69
2022-10-02T08:10:52.884Z,101753.56
2022-10-02T08:13:28.476Z,101765.31
2022-10-02T08:15:57.910Z,101784.59
2022-10-02T08:18:34.970Z,101789.69
2022-10-02T08:21:05.377Z,101788.84
2022-10-02T08:23:38.953Z,101798.50
2022-10-02T08:26:13.581Z,101809.44
2022-10-02T08:28:45.774Z,101818.84
2022-10-02T08:31:16.058Z,101829.56
2022-10-02T08:33:44.265Z,101834.38
2022-10-02T08:36:58.446Z,101834.03
2022-10-02T08:39:45.865Z,101835.88
2022-10-02T08:42:45.517Z,101840.88
2022-10-02T08:45:34.067Z,101846.34
2022-10-02T08:48:34.849Z,101852.19
2022-10-02T08:51:39.376Z,101846.31
2022-10-02T08:54:35.169Z,101846.16
2022-10-02T08:57:19.685Z,101849.69
2022-10-02T09:00:11.035Z,101854.91
2022-10-02T09:03:33.461Z,101865.84
2022-10-02T09:06:48.977Z,101867.69
2022-10-02T09:09:53.424Z,101880.66
2022-10-02T09:13:28.018Z,101871.44
2022-10-02T09:16:10.120Z,101873.97
2022-10-02T09:18:55.333Z,101890.94
2022-10-02T09:21:44.847Z,101889.66
2022-10-02T09:24:52.825Z,101901.16
2022-10-02T09:27:54.538Z,101889.31
2022-10-02T09:30:35.315Z,101896.88
2022-10-02T09:33:35.347Z,101898.16
2022-10-02T09:36:47.784Z,101902.00
2022-10-02T09:40:03.115Z,101898.41
2022-10-02T09:42:58.101Z,101887.28
2022-10-02T09:46:00.861Z,101888.03
2022-10-02T09:49:06.232Z,101891.41
2022-10-02T09:51:56.665Z,101896.59
2022-10-02T09:54:52.362Z,101896.41
2022-10-02T09:57:47.066Z,101901.44
2022-10-02T10:00:27.588Z,101910.34
2022-10-02T10:03:30.630Z,101914.84
2022-10-02T10:06:24.907Z,101920.38
2022-10-02T10:09:40.542Z,101922.63
2022-10-02T10:12:48.224Z,101926.22
2022-10-02T10:15:57.637Z,101931.84
2022-10-02T10:18:57.297Z,101937.22
2022-10-02T10:22:06.881Z,101941.63
2022-10-02T10:25:13.706Z,101938.78
2022-10-02T10:28:09.189Z,101953.16
2022-10-02T10:31:01.325Z,101950.72
2022-10-02T10:34:11.680Z,101941.81
2022-10-02T10:37:15.500Z,101936.09
2022-10-02T10:40:18.259Z,101939.91
2022-10-02T10:43:28.226Z,101949.16
2022-10-02T10:46:17.499Z,101953.19
2022-10-02T10:49:11.804Z,101953.59
2022-10-02T10:51:48.657Z,101958.59
2022-10-02T10:54:48.785Z,101950.09
2022-10-02T10:57:37.545Z,101946.44
2022-10-02T11:00:19.096Z,101941.78
2022-10-02T11:03:22.530Z,101965.50
2022-10-02T11:06:12.544Z,101965.97
2022-10-02T11:09:12.870Z,101955.78
2022-10-02T11:11:59.470Z,101961.19
2022-10-02T11:14:38.331Z,101965.88
2022-10-02T11:17:41.058Z,101965.78
2022-10-02T11:20:29.559Z,101969.63
2022-10-02T11:23:23.995Z,101973.16
2022-10-02T11:26:16.006Z,101975.16
2022-10-02T11:29:13.145Z,101963.25
2022-10-02T11:32:03.279Z,101982.66
2022-10-02T11:34:55.721Z,101988.41
2022-10-02T11:37:41.759Z,101984.97
2022-10-02T11:40:23.943Z,101985.03
2022-10-02T11:43:03.196Z,101995.78
2022-10-02T11:45:55.482Z,102003.34
2022-10-02T11:48:49.749Z,101996.47
2022-10-02T11:51:53.159Z,102002.91
2022-10-02T11:54:44.903Z,102001.50
2022-10-02T11:57:28.279Z,102005.69
2022-10-02T12:00:09.095Z,102002.84
2022-10-02T12:02:53.173Z,102006.41
2022-10-02T12:05:38.054Z,102005.47
2022-10-02T12:08:17.490Z,102012.28
2022-10-02T12:10:53.874Z,102009.97
2022-10-02T12:13:33.853Z,102004.25
2022-10-02T12:16:12.025Z,102010.16
2022-10-02T12:18:57.234Z,102009.66
2022-10-02T12:22:03.514Z,101993.22
2022-10-02T12:24:58.690Z,102007.81
2022-10-02T12:27:40.303Z,102004.09
2022-10-02T12:30:12.205Z,102007.00
2022-10-02T12:33:21.926Z,102015.53
2022-10-02T12:36:08.617Z,102011.94
2022-10-02T12:38:52.350Z,102025.28
2022-10-02T12:41:37.325Z,102042.22
2022-10-02T12:44:33.231Z,102057.56
2022-10-02T12:47:15.490Z,102048.69
2022-10-02T12:49:55.668Z,102054.44
2022-10-02T12:53:04.389Z,102057.56
2022-10-02T12:56:01.444Z,102058.88
2022-10-02T12:58:43.620Z,102055.53
2022-10-02T13:01:39.132Z,102055.53
2022-10-02T13:04:45.816Z,102060.97
2022-10-02T13:07:55.871Z,102067.16
2022-10-02T13:10:26.724Z,102066.41
2022-10-02T13:13:12.619Z,102070.75
2022-10-02T13:15:54.933Z,102068.78
2022-10-02T13:18:43.924Z,102080.47
2022-10-02T13:21:21.260Z,102085.97
2022-10-02T13:24:05.459Z,102086.25
2022-10-02T13:26:42.562Z,102089.81
2022-10-02T13:29:37.120Z,102079.31
2022-10-02T13:32:31.988Z,102088.53
2022-10-02T13:35:30.493Z,102082.09
2022-10-02T13:38:17.705Z,102085.81
2022-10-02T13:40:55.888Z,102085.56
2022-10-02T13:43:40.929Z,102090.00
2022-10-02T13:46:18.843Z,102091.78
2022-10-02T13:49:00.157Z,102084.38
2022-10-02T13:51:46.127Z,102098.34
2022-10-02T13:54:39.295Z,102101.34
2022-10-02T13:57:21.048Z,102095.13
2022-10-02T14:00:02.206Z,102107.38
2022-10-02T14:03:05.091Z,102103.19
2022-10-02T14:05:42.611Z,102116.47
2022-10-02T14:08:31.198Z,102119.59
2022-10-02T14:11:10.940Z,102128.97
2022-10-02T14:13:54.105Z,102124.81
2022-10-02T14:16:36.167Z,102115.16
2022-10-02T14:19:31.210Z,102123.94
2022-10-02T14:22:19.329Z,102133.63
2022-10-02T14:25:10.901Z,102138.44
2022-10-02T14:28:23.807Z,102133.34
2022-10-02T14:31:17.691Z,102127.94
2022-10-02T14:34:05.056Z,102119.09
2022-10-02T14:36:40.427Z,102127.28
2022-10-02T14:39:27.294Z,102130.28
2022-10-02T14:42:28.663Z,102134.59
2022-10-02T14:45:21.573Z,102135.81
2022-10-02T14:48:03.814Z,102141.53
2022-10-02T14:50:44.888Z,102141.06
2022-10-02T14:53:33.463Z,102141.81
2022-10-02T14:56:43.606Z,102142.91
2022-10-02T14:59:24.249Z,102152.50
2022-10-02T15:02:04.520Z,102153.44
2022-10-02T15:04:46.008Z,102152.88
2022-10-02T15:07:16.330Z,102161.47
2022-10-02T15:09:59.117Z,102163.50
2022-10-02T15:12:43.907Z,102167.06
2022-10-02T15:15:17.783Z,102161.41
2022-10-02T15:17:56.659Z,102167.16
2022-10-02T15:20:37.939Z,102167.16
2022-10-02T15:23:10.410Z,102163.84
2022-10-02T15:25:55.447Z,102166.28
2022-10-02T15:28:38.931Z,102168.31
2022-10-02T15:31:19.828Z,102170.38
2022-10-02T15:34:02.289Z,102163.34
2022-10-02T15:36:53.486Z,102174.56
2022-10-02T15:39:52.499Z,102175.25
2022-10-02T15:42:29.654Z,102170.72
2022-10-02T15:45:20.534Z,102179.56
2022-10-02T15:48:06.580Z,102177.44
2022-10-02T15:50:46.299Z,102186.66
2022-10-02T15:53:33.642Z,102180.72
2022-10-02T15:56:16.382Z,102197.47
2022-10-02T15:59:01.134Z,102190.06
2022-10-02T16:01:44.374Z,102195.31
2022-10-02T16:04:25.069Z,102196.72
2022-10-02T16:07:32.980Z,102204.44
2022-10-02T16:10:15.000Z,102194.38
2022-10-02T16:12:58.167Z,102197.81
2022-10-02T16:15:31.698Z,102202.06
2022-10-02T16:18:23.041Z,102203.81
2022-10-02T16:21:13.664Z,102213.34
2022-10-02T16:24:10.718Z,102206.81
2022-10-02T16:26:59.452Z,102209.72
2022-10-02T16:29:35.544Z,102216.94
2022-10-02T16:32:17.419Z,102220.03
2022-10-02T16:35:16.544Z,102224.03
2022-10-02T16:37:46.673Z,102232.75
2022-10-02T16:40:26.893Z,102230.06
2022-10-02T16:43:20.893Z,102231.41
2022-10-02T16:46:04.533Z,102233.78
2022-10-02T16:48:42.605Z,102244.97
2022-10-02T16:51:27.821Z,102247.31
2022-10-02T16:54:03.575Z,102251.50
2022-10-02T16:56:41.077Z,102252.41
2022-10-02T16:59:15.164Z,102269.31
2022-10-02T17:02:05.933Z,102270.44
2022-10-02T17:04:50.208Z,102264.44
2022-10-02T17:07:31.681Z,102274.81
2022-10-02T17:10:07.320Z,102266.00
2022-10-02T17:12:45.676Z,102263.50
2022-10-02T17:15:22.019Z,102266.50
2022-10-02T17:18:06.266Z,102262.53
2022-10-02T17:20:43.547Z,102275.63
2022-10-02T17:23:21.979Z,102284.88
2022-10-02T17:25:58.075Z,102295.41
2022-10-02T17:28:34.761Z,102298.59
2022-10-02T17:31:35.521Z,102314.25
2022-10-02T17:34:19.925Z,102308.81
2022-10-02T17:37:02.405Z,102305.66
2022-10-02T17:39:53.857Z,102304.41
2022-10-02T17:42:35.349Z,102307.56
2022-10-02T17:45:16.866Z,102316.88
2022-10-02T17:48:07.572Z,102325.31
2022-10-02T17:50:58.306Z,102330.00
2022-10-02T17:53:56.964Z,102330.84
2022-10-02T17:56:55.384Z,102334.03
2022-10-02T17:59:41.277Z,102337.22
2022-10-02T18:02:19.490Z,102336.59
2022-10-02T18:05:19.399Z,102334.53
2022-10-02T18:08:18.360Z,102340.22
2022-10-02T18:11:14.889Z,102350.34
2022-10-02T18:14:00.050Z,102361.53
2022-10-02T18:16:45.791Z,102362.59
2022-10-02T18:19:27.866Z,102364.31
2022-10-02T18:22:20.249Z,102370.59
2022-10-02T18:25:21.207Z,102383.47
2022-10-02T18:28:05.760Z,102386.16
2022-10-02T18:30:46.205Z,102379.88
2022-10-02T18:33:42.395Z,102390.38
2022-10-02T18:36:24.694Z,102390.38
2022-10-02T18:39:01.093Z,102396.28
2022-10-02T18:41:48.882Z,102405.94
2022-10-02T18:44:51.711Z,102404.19
2022-10-02T18:47:36.512Z,102416.38
2022-10-02T18:50:21.278Z,102414.50
2022-10-02T18:53:15.876Z,102419.72
2022-10-02T18:56:03.302Z,102423.94
2022-10-02T18:58:44.380Z,102430.22
2022-10-02T19:01:39.430Z,102442.41
2022-10-02T19:04:24.486Z,102434.59
2022-10-02T19:07:02.992Z,102449.06
2022-10-02T19:09:32.296Z,102444.03
2022-10-02T19:12:05.178Z,102443.78
2022-10-02T19:14:41.862Z,102451.75
2022-10-02T19:17:14.996Z,102454.22
2022-10-02T19:19:45.167Z,102450.22
2022-10-02T19:22:20.301Z,102453.75
2022-10-02T19:24:51.564Z,102469.47
2022-10-02T19:27:26.437Z,102467.53
2022-10-02T19:29:57.850Z,102478.22
2022-10-02T19:32:31.277Z,102465.56
2022-10-02T19:35:07.574Z,102465.97
2022-10-02T19:37:42.329Z,102472.41
2022-10-02T19:40:16.790Z,102480.16
2022-10-02T19:42:49.515Z,102484.72
2022-10-02T19:45:25.471Z,102479.84
2022-10-02T19:47:59.785Z,102479.75
2022-10-02T19:50:41.011Z,102496.28
2022-10-02T19:53:21.432Z,102504.19
2022-10-02T19:55:53.881Z,102513.16
2022-10-02T19:58:24.047Z,102519.41
2022-10-02T20:00:54.139Z,102519.13
2022-10-02T20:03:24.295Z,102527.72
2022-10-02T20:05:58.446Z,102538.34
2022-10-02T20:08:30.987Z,102540.81
2022-10-02T20:11:05.353Z,102550.78
2022-10-02T20:13:37.743Z,102552.56
2022-10-02T20:16:31.994Z,102550.44
2022-10-02T20:19:00.909Z,102551.00
2022-10-02T20:21:39.601Z,102553.06
2022-10-02T20:24:18.387Z,102551.50
2022-10-02T20:26:48.772Z,102552.16
2022-10-02T20:29:24.174Z,102550.81
2022-10-02T20:31:59.537Z,102554.59
2022-10-02T20:34:35.794Z,102558.72
2022-10-02T20:37:09.453Z,102570.84
2022-10-02T20:39:41.344Z,102563.03
2022-10-02T20:42:16.239Z,102552.75
2022-10-02T20:44:44.444Z,102564.84
2022-10-02T20:47:45.377Z,102567.28
2022-10-02T20:50:31.425Z,102568.03
2022-10-02T20:53:37.814Z,102574.69
2022-10-02T20:56:11.759Z,102574.44
2022-10-02T20:58:57.262Z,102577.88
2022-10-02T21:01:35.780Z,102569.78
2022-10-02T21:04:36.949Z,102572.72
2022-10-02T21:07:21.904Z,102573.06
2022-10-02T21:10:28.345Z,102568.84
2022-10-02T21:13:33.039Z,102569.56
2022-10-02T21:16:37.130Z,102576.03
2022-10-02T21:19:47.171Z,102566.91
2022-10-02T21:22:44.208Z,102561.53
2022-10-02T21:25:40.312Z,102561.75
2022-10-02T21:28:54.683Z,102570.44
2022-10-02T21:31:37.791Z,102574.91
2022-10-02T21:34:21.822Z,102575.97
2022-10-02T21:36:54.861Z,102578.22
2022-10-02T21:40:01.023Z,102584.03
2022-10-02T21:43:17.717Z,102595.81
2022-10-02T21:46:23.060Z,102598.06
2022-10-02T21:49:20.845Z,102593.25
2022-10-02T21:52:16.538Z,102598.59
2022-10-02T21:55:13.259Z,102607.41
2022-10-02T21:58:21.795Z,102602.88
2022-10-02T22:01:09.062Z,102597.28
2022-10-02T22:04:11.960Z,102608.16
2022-10-02T22:06:50.137Z,102600.38
2022-10-02T22:09:38.355Z,102599.69
2022-10-02T22:12:20.756Z,102600.91
2022-10-02T22:14:58.755Z,102600.63
2022-10-02T22:17:32.700Z,102600.94
2022-10-02T22:20:41.420Z,102604.91
2022-10-02T22:23:29.226Z,102616.47
2022-10-02T22:26:12.538Z,102616.00
2022-10-02T22:28:46.067Z,102619.38
2022-10-02T22:31:36.329Z,102627.56
2022-10-02T22:34:22.432Z,102624.66
2022-10-02T22:37:07.958Z,102632.13
2022-10-02T22:39:41.339Z,102625.03
2022-10-02T22:42:18.059Z,102623.19
2022-10-02T22:44:52.462Z,102620.34
2022-10-02T22:47:28.779Z,102613.88
2022-10-02T22:50:05.178Z,102607.47
2022-10-02T22:52:42.856Z,102604.41
2022-10-02T22:55:16.154Z,102607.47
2022-10-02T22:57:50.478Z,102602.72
2022-10-02T23:00:22.007Z,102601.03
2022-10-02T23:02:58.047Z,102597.84
2022-10-02T23:05:33.214Z,102602.41
2022-10-02T23:08:13.740Z,102604.63
2022-10-02T23:10:46.675Z,102609.72
2022-10-02T23:13:23.129Z,102610.56
2022-10-02T23:15:59.430Z,102599.69
2022-10-02T23:18:37.522Z,102597.00
2022-10-02T23:21:19.420Z,102605.69
2022-10-02T23:23:55.507Z,102606.19
2022-10-02T23:26:33.362Z,102613.31
2022-10-02T23:29:15.359Z,102612.81
2022-10-02T23:31:51.307Z,102612.31
2022-10-02T23:34:30.948Z,102620.81
2022-10-02T23:37:02.944Z,102623.69
2022-10-02T23:39:40.080Z,102615.22
2022-10-02T23:42:11.951Z,102604.69
2022-10-02T23:44:44.986Z,102603.66
2022-10-02T23:47:25.314Z,102601.84
2022-10-02T23:49:55.421Z,102607.44
2022-10-02T23:52:58.284Z,102599.16
2022-10-02T23:55:44.741Z,102590.81
2022-10-02T23:58:31.292Z,102604.88
